Flight Track Log - Related Links

Times and Time Zones

All times are in EDT time to prevent confusion due to time zone crossing. See the SWA3561 flight status page for this flight to view local times or setup timezone preferences in your user account.

Time Position Orientation Groundspeed Altitude Reporting Facility
EDT Latitude Longitude Course Direction KTS MPH feet Rate Location/Type
Sat 09:29:28 AM 32.9000 -96.9000 323° Northwest 209 241 3,800  Level Dallas / Fort Worth TRACON
Sat 09:30:28 AM 32.9000 -96.9667 270° West 223 257 7,200 3,173 Climbing Dallas / Fort Worth TRACON
Sat 09:32:39 AM 32.7453 -97.0428 202° Southwest 320 368 13,900 3,016 Climbing Fort Worth Center
Sat 09:33:39 AM 32.6408 -97.0483 183° South 370 426 16,800 3,350 Climbing Fort Worth Center
Sat 09:34:39 AM 32.5322 -97.0511 181° South 389 448 20,600 3,150 Climbing Fort Worth Center
Sat 09:35:39 AM 32.4258 -97.0564 182° South 389 448 23,100 2,100 Climbing Fort Worth Center
Sat 09:36:39 AM 32.3236 -97.0594 181° South 395 455 24,800 2,000 Climbing Fort Worth Center
Sat 09:37:39 AM 32.1942 -97.0622 181° South 417 480 27,100 2,200 Climbing Fort Worth Center
Sat 09:38:39 AM 32.0750 -97.0653 181° South 423 487 29,200 1,450 Climbing Fort Worth Center
Sat 09:39:39 AM 31.9644 -97.0656 180° South 434 499 30,000 400 Climbing Fort Worth Center
Sat 09:40:39 AM 31.8414 -97.0733 183° South 440 506 30,000  Level Fort Worth Center
Sat 09:41:39 AM 31.7222 -97.0786 182° South 440 506 30,000  Level Fort Worth Center
Sat 09:42:42 AM 31.6017 -97.0808 181° South 433 498 30,000  Level Houston Center
Sat 09:43:43 AM 31.4858 -97.1006 188° South 415 478 30,000  Level Houston Center
Sat 09:44:44 AM 31.3594 -97.1497 198° South 406 467 30,000  Level Houston Center
Sat 09:45:45 AM 31.2500 -97.1925 198° South 409 471 30,000  Level Houston Center
Sat 09:46:47 AM 31.1422 -97.2350 199° South 407 468 30,000  Level Houston Center
Sat 09:47:48 AM 31.0347 -97.2775 199° South 407 468 30,000  Level Houston Center
Sat 09:48:49 AM 30.9286 -97.3178 198° South 413 475 30,000  Level Houston Center
Sat 09:49:50 AM 30.8194 -97.3603 198° South 417 480 30,000  Level Houston Center
Sat 09:50:52 AM 30.7108 -97.4017 198° South 410 472 30,000  Level Houston Center
Sat 09:51:53 AM 30.6008 -97.4450 199° South 412 474 30,000 -934 Level Houston Center
Sat 09:52:54 AM 30.4917 -97.4872 198° South 410 472 28,100 -2,439 Descending Houston Center
Sat 09:53:56 AM 30.3675 -97.5381 199° South 403 464 25,000 -3,024 Descending Houston Center
Sat 09:54:57 AM 30.2758 -97.6022 211° Southwest 382 440 21,900 -2,607 Descending Houston Center
Sat 09:55:58 AM 30.1853 -97.6642 211° Southwest 377 434 19,700 -2,039 Descending Houston Center
Sat 09:56:40 AM 30.1372 -97.6983 212° Southwest 359 413 18,400 -2,066 Descending Houston Center
Sat 09:56:59 AM 30.1019 -97.7219 210° Southwest 354 407 17,600 -2,111 Descending Houston Center
Sat 09:57:34 AM 30.0544 -97.7550 211° Southwest 339 390 16,500 -1,935 Descending Houston Center
Sat 09:58:01 AM 30.0181 -97.7781 209° Southwest 333 383 15,600 -1,967 Descending Houston Center
Sat 09:58:35 AM 29.9778 -97.8083 213° Southwest 324 373 14,500 -2,066 Descending Houston Center
Sat 09:59:02 AM 29.9425 -97.8317 210° Southwest 318 366 13,500 -1,800 Descending Houston Center
Sat 09:59:35 AM 29.9028 -97.8586 210° Southwest 314 361 12,700 -1,742 Descending Houston Center
Sat 10:00:04 AM 29.8797 -97.9017 238° Southwest 296 341 11,700 -1,967 Descending Houston Center
Sat 10:00:36 AM 29.8628 -97.9458 246° West 280 322 10,700 -1,770 Descending Houston Center
Sat 10:01:05 AM 29.8453 -97.9839 242° Southwest 284 327 9,900 -1,770 Descending Houston Center
Sat 10:01:37 AM 29.8283 -98.0272 246° West 281 323 8,900 -1,770 Descending Houston Center
Sat 10:02:06 AM 29.8114 -98.0653 243° Southwest 284 327 8,100 -1,600 Descending Houston Center
Sat 10:02:37 AM 29.7942 -98.1086 245° Southwest 284 327 7,300 -1,355 Descending Houston Center
Sat 10:03:08 AM 29.7769 -98.1456 242° Southwest 279 321 6,700 -1,180 Descending Houston Center
Sat 10:03:38 AM 29.7594 -98.1875 244° Southwest 273 314 6,100 -885 Descending Houston Center
Sat 10:04:09 AM 29.7433 -98.2253 244° Southwest 258 297 5,800 -627 Descending Houston Center
Sat 10:04:45 AM 29.7175 -98.2553 225° Southwest 247 284 5,400 -774 Descending Houston Center
Sat 10:05:11 AM 29.6961 -98.2811 226° Southwest 243 280 5,000 -889 Descending Houston Center
Sat 10:05:39 AM 29.6761 -98.3058 227° Southwest 229 264 4,600 -787 Descending Houston Center
Sat 10:06:12 AM 29.6533 -98.3333 226° Southwest 225 259 4,200 -873 Descending Houston Center
Sat 10:06:34 AM 29.6403 -98.3511 230° Southwest 207 238 3,800 -1,180 Descending Houston Center
Sat 10:07:13 AM 29.6167 -98.3769 224° Southwest 176 203 3,000 -1,091 Descending Houston Center
Sat 10:07:40 AM 29.6061 -98.3889 225° Southwest 148 170 2,600 -968 Descending Houston Center
Sat 10:08:15 AM 29.5878 -98.4072 221° Southwest 148 170 2,000 -885 Descending Houston Center
Sat 10:08:41 AM 29.5772 -98.4164 217° Southwest 106 122 1,700 -590 Descending Houston Center
Sat 10:09:16 AM 29.5656 -98.4289 223° Southwest 110 127 1,400 -537 Descending Houston Center
Sat 10:09:48 AM 29.5500 -98.4414 215° Southwest 115 132 1,100 -581 Descending Houston Center
Sat 10:10:18 AM 29.5408 -98.4550 232° Southwest 116 133 800 -600 Descending Houston Center
Sat 10:12:00 AM 29.5333 -98.4667 229° Southwest  Level FlightAware Approximate
Sat 10:19:00 AM 29.5340 -98.4691 229° Southwest  Level Estimated

Login

Don't have an account? Register now (free) for customized features, flight alerts, and more!